Nearby METAR Reports

 

KMTN - Baltimore/Martin, Maryland, USA
Distance from station: SSE 8mi, 13km
Updated: Sat, 31-Jan-2015 5:45am EST

 Wind from WNW
Wind: WNW 17 mph , 28 km/h
Visibility: 10 miles , 16 km
2015/01/31 10:45 KMTN 311045Z 29015KT 10SM SCT M08/M16 A3028 RMK FIRST
KDMH - Baltimore/Dwntwn, Maryland, USA
Distance from station: SW 12mi, 19km
Updated: Sat, 31-Jan-2015 5:54am EST

 
Temperature: 19°F , -7°C
Dew Point: 1°F , -17°C
Humidity: 45%
Barometer: 30.27 inHg , 1025.1 hPa
2015/01/31 10:54 KDMH 311054Z AUTO M07/M17 A3027 RMK AO1 SLP249 T10721167
 
KBWI - Balto/Wash Intl, Maryland, USA
Distance from station: SSW 20mi, 33km
Updated: Sat, 31-Jan-2015 5:54am EST
Clear
Clear
 Wind from WNW
Wind: WNW 9 mph , 15 km/h
Temperature: 18°F , -8°C
Wind Chill: 7°F , -14°C
Dew Point: 5°F , -15°C
Humidity: 58%
Barometer: 30.26 inHg , 1024.7 hPa
Clouds: Clear
Visibility: 10 miles , 16 km
2015/01/31 10:54 KBWI 311054Z 29008KT 10SM CLR M08/M15 A3026 RMK AO2 SLP248 T10831150
KDMW - Carroll Cnty, Maryland, USA
Distance from station: WNW 30mi, 48km
Updated: Sat, 31-Jan-2015 6:10am EST
Partly cloudy
Partly cloudy
 Wind from NW
Wind: NW 8 mph , 13 km/h
Temperature: 12°F , -11°C
Wind Chill: 0°F , -18°C
Dew Point: 3°F , -16°C
Humidity: 67%
Barometer: 30.22 inHg , 1023.4 hPa
Clouds: Partly cloudy
Visibility: 10 miles , 16 km
Cloud details: Partly cloudy 8000 ft
2015/01/31 11:10 KDMW 311110Z AUTO 31007KT 10SM SCT080 M11/M16 A3022 RMK AO2
 
KNAK - Annapolis/Naval, Maryland, USA
Distance from station: S 30mi, 48km
Updated: Sat, 31-Jan-2015 5:54am EST
Clear
Clear
 Wind from WNW
Wind: WNW 9 mph , 15 km/h, Gust: 21 mph , 33 km/h
Temperature: 19°F , -7°C
Wind Chill: 8°F , -13°C
Dew Point: 7°F , -14°C
Humidity: 58%
Barometer: 30.27 inHg , 1025.1 hPa
Clouds: Clear
Visibility: 10 miles , 16 km
2015/01/31 10:54 KNAK 311054Z AUTO 29008G18KT 260V320 10SM CLR M07/M14 A3027 RMK AO2 SLP251 T10671139
KW29 - Stevensville, Maryland, USA
Distance from station: SSE 31mi, 50km
Updated: Sat, 31-Jan-2015 6:12am EST

 Wind from NW
Wind: NW 15 mph , 24 km/h, Gust: 30 mph , 48 km/h
Temperature: 21°F , -6°C
Wind Chill: 7°F , -14°C
Dew Point: 5°F , -15°C
Humidity: 49%
Barometer: 30.27 inHg , 1025.1 hPa
Visibility: 10 miles , 16 km
2015/01/31 11:12 KW29 311112Z AUTO 31013G26KT 10SM M06/M15 A3027 RMK AO1
 
KCGS - College Park, Maryland, USA
Distance from station: SW 38mi, 61km
Updated: Sat, 31-Jan-2015 6:10am EST
Clear
Clear
 Wind from WNW
Wind: WNW 8 mph , 13 km/h
Temperature: 19°F , -7°C
Wind Chill: 9°F , -13°C
Dew Point: 7°F , -14°C
Humidity: 58%
Barometer: 30.29 inHg , 1025.7 hPa
Clouds: Clear
Visibility: 10 miles , 16 km
2015/01/31 11:10 KCGS 311110Z AUTO 29007KT 10SM CLR M07/M14 A3029 RMK AO1
KGAI - Gaithersburg, Maryland, USA
Distance from station: WSW 40mi, 65km
Updated: Sat, 31-Jan-2015 6:15am EST
Clear
Clear
 Wind from WNW
Wind: WNW 14 mph , 22 km/h, Gust: 20 mph , 31 km/h
Temperature: 16°F , -9°C
Wind Chill: 2°F , -17°C
Dew Point: 3°F , -16°C
Humidity: 57%
Barometer: 30.29 inHg , 1025.7 hPa
Clouds: Clear
Visibility: 10 miles , 16 km
2015/01/31 11:15 KGAI 311115Z 30012G17KT 10SM CLR M09/M16 A3029 RMK AO1
 
KTHV - York, Pennsylvania, USA
Distance from station: NNW 40mi, 65km
Updated: Sat, 31-Jan-2015 5:53am EST
Clear
Clear
 Wind from calm
Wind: Calm
Temperature: 9°F , -13°C
Dew Point: -2°F , -19°C
Humidity: 61%
Barometer: 30.24 inHg , 1024 hPa
Clouds: Clear
Visibility: 10 miles , 16 km
2015/01/31 10:53 KTHV 311053Z AUTO 00000KT 10SM CLR M13/M19 A3024 RMK AO2 SLP253 T11331194
KFDK - Frederick, Maryland, USA
Distance from station: W 47mi, 75km
Updated: Sat, 31-Jan-2015 5:30am EST
Clear
Clear
 Wind from WNW
Wind: WNW 12 mph , 19 km/h, Gust: 16 mph , 26 km/h
Temperature: 19°F , -7°C
Wind Chill: 6°F , -14°C
Dew Point: 3°F , -16°C
Humidity: 49%
Barometer: 30.31 inHg , 1026.4 hPa
Clouds: Clear
Visibility: 10 miles , 16 km
2015/01/31 10:30 KFDK 311030Z AUTO 29010G14KT 10SM CLR M07/M16 A3031 RMK AO2 LTG DSNT E
 
KESN - Easton/Newnam, Maryland, USA
Distance from station: SSE 48mi, 78km
Updated: Sat, 31-Jan-2015 5:50am EST
Clear
Clear
 Wind from N
Wind: N 15 mph , 24 km/h, Gust: 26 mph , 43 km/h
Temperature: 21°F , -6°C
Wind Chill: 7°F , -14°C
Dew Point: 7°F , -14°C
Humidity: 54%
Barometer: 30.28 inHg , 1025.4 hPa
Clouds: Clear
Visibility: 10 miles , 16 km
2015/01/31 10:50 KESN 311050Z AUTO 35013G23KT 10SM CLR M06/M14 A3028 RMK AO2 T10581144
KDCA - Washington/Natl, Washington D.c., USA
Distance from station: SW 49mi, 79km
Updated: Sat, 31-Jan-2015 5:52am EST
Clear
Clear
 Wind from NW
Wind: NW 12 mph , 19 km/h, Gust: 20 mph , 31 km/h
Temperature: 21°F , -6°C
Wind Chill: 9°F , -13°C
Dew Point: 3°F , -16°C
Humidity: 45%
Barometer: 30.31 inHg , 1026.4 hPa
Clouds: Clear
Visibility: 10 miles , 16 km
2015/01/31 10:52 KDCA 311052Z 32010G17KT 10SM CLR M06/M16 A3031 RMK AO2 SLP262 T10611156
 
KLNS - Lancaster, Pennsylvania, USA
Distance from station: N 49mi, 79km
Updated: Sat, 31-Jan-2015 5:53am EST
Clear
Clear
 Wind from WNW
Wind: WNW 8 mph , 13 km/h
Temperature: 10°F , -12°C
Wind Chill: -2°F , -19°C
Dew Point: -6°F , -21°C
Humidity: 47%
Barometer: 30.22 inHg , 1023.4 hPa
Clouds: Clear
Visibility: 10 miles , 16 km
2015/01/31 10:53 KLNS 311053Z AUTO 29007KT 10SM CLR M12/M21 A3022 RMK AO2 SLP242 T11171206
KILG - Wilmington, Delaware, USA
Distance from station: ENE 50mi, 81km
Updated: Sat, 31-Jan-2015 5:51am EST
Clear
Clear
 Wind from NW
Wind: NW 18 mph , 30 km/h, Gust: 28 mph , 44 km/h
Temperature: 16°F , -9°C
Wind Chill: -0°F , -18°C
Dew Point: -2°F , -19°C
Humidity: 45%
Barometer: 30.22 inHg , 1023.4 hPa
Clouds: Clear
Visibility: 10 miles , 16 km
2015/01/31 10:51 KILG 311051Z 32016G24KT 10SM CLR M09/M19 A3022 RMK AO2 PK WND 31027/1014 SLP234 T10941194